ADDS METAR Data INFO
IDs: Format: Raw Decoded Include TAF

Data at: 1551 UTC 12 Dec 2017

KISM 121456Z 23009KT 10SM CLR 17/11 A3006 RMK AO2 SLP183 T01670111 58004
KISM 121356Z 23008KT 10SM CLR 13/09 A3007 RMK AO2 SLP186 T01280094
KISM 121256Z 00000KT 10SM CLR 08/06 A3008 RMK AO2 SLP187 T00780061
KISM 121156Z AUTO 00000KT 10SM CLR 07/05 A3007 RMK AO2 SLP187 T00670050 10067 20039 56007
KISM 121056Z AUTO 00000KT 10SM CLR 07/06 A3008 RMK AO2 SLP188 T00670056
KISM 120956Z AUTO 23003KT 10SM CLR 06/05 A3009 RMK AO2 SLP192 T00610050 TSNO
KISM 120856Z AUTO 23003KT 10SM CLR 06/04 A3009 RMK AO2 SLP194 T00560044 56015
KISM 120756Z AUTO 00000KT 10SM CLR 04/03 A3010 RMK AO2 SLP197 T00440028
KISM 120656Z AUTO 00000KT 10SM CLR 04/03 A3012 RMK AO2 SLP201 T00440033
KISM 120556Z AUTO 00000KT 10SM CLR 05/03 A3014 RMK AO2 SLP209 T00500028 10111 20044 56018
KISM 120456Z AUTO 00000KT 10SM CLR 07/02 A3015 RMK AO2 SLP214 T00670022 401720022
KISM 120356Z AUTO 29004KT 10SM CLR 07/03 A3017 RMK AO2 SLP220 T00670028
KISM 120256Z AUTO 30004KT 10SM CLR 08/03 A3019 RMK AO2 SLP227 T00780033 50000
KISM 120156Z 27004KT 10SM CLR 07/03 A3020 RMK AO2 SLP229 T00720033
KISM 120056Z 27006KT 10SM CLR 08/04 A3020 RMK AO2 SLP228 T00780039
KISM 112356Z 00000KT 10SM CLR 11/02 A3019 RMK AO2 SLP227 T01060022 10172 20106 53005
KISM 112256Z 00000KT 10SM CLR 12/03 A3018 RMK AO2 SLP224 T01170028
KISM 112156Z 31004KT 10SM CLR 16/M01 A3018 RMK AO2 SLP222 T01611011
KISM 112056Z 30004KT 10SM CLR 17/M05 A3018 RMK AO2 SLP222 T01671050 56017
KISM 111931Z 25003KT 10SM FEW002 17/M02 A3019 RMK AO2
KISM 111856Z VRB04KT 10SM CLR 16/M03 A3020 RMK AO2 SLP229 T01561033
KISM 111756Z 30008KT 10SM CLR 15/M02 A3023 RMK AO2 SLP238 T01501017 10150 20022 58031
KISM 111656Z 32010G14KT 10SM CLR 14/M03 A3026 RMK AO2 SLP251 T01391028
KISM 111556Z VRB06KT 10SM CLR 13/M02 A3030 RMK AO2 SLP262 T01281022
KISM 111456Z 01005KT 10SM CLR 11/01 A3032 RMK AO2 SLP269 T01110006 51004
KISM 111356Z 01005KT 10SM CLR 09/03 A3032 RMK AO2 SLP269 T00940033
KISM 111256Z 00000KT 10SM CLR 04/03 A3032 RMK AO2 SLP269 T00440033
KISM 111156Z 00000KT 10SM CLR 02/01 A3031 RMK AO2 SLP266 T00220011 10050 20022 53003
KISM 111056Z 00000KT 10SM CLR 03/02 A3030 RMK AO2 SLP264 T00280017
KISM 110956Z 00000KT 10SM CLR 04/03 A3030 RMK AO2 SLP263 T00390028
KISM 110856Z 32004KT 10SM CLR 04/03 A3030 RMK AO2 SLP263 T00390028 55004
KISM 110756Z 00000KT 10SM CLR 04/03 A3029 RMK AO2 SLP261 T00390028
KISM 110656Z 00000KT 10SM CLR 04/03 A3030 RMK AO2 SLP264 T00440028
KISM 110556Z 32003KT 10SM CLR 05/03 A3031 RMK AO2 SLP267 T00500033 10089 20039 58009
KISM 110456Z 29004KT 10SM CLR 04/03 A3032 RMK AO2 SLP271 T00440028 401440039
KISM 110356Z 00000KT 10SM CLR 05/03 A3034 RMK AO2 SLP276 T00500028